createdAt,value
2023-04-12T00:01:10.437Z,7.20
2023-04-12T00:03:39.669Z,8.10
2023-04-12T00:06:07.480Z,12.87
2023-04-12T00:08:35.262Z,9.90
2023-04-12T00:11:03.676Z,7.17
2023-04-12T00:13:30.802Z,7.93
2023-04-12T00:15:57.579Z,8.73
2023-04-12T00:18:26.087Z,8.03
2023-04-12T00:20:53.329Z,7.20
2023-04-12T00:23:20.684Z,8.63
2023-04-12T00:25:48.427Z,9.27
2023-04-12T00:28:18.424Z,7.17
2023-04-12T00:30:46.008Z,10.23
2023-04-12T00:33:12.848Z,10.30
2023-04-12T00:35:39.682Z,7.67
2023-04-12T00:38:10.583Z,11.37
2023-04-12T00:40:41.605Z,10.87
2023-04-12T00:43:10.235Z,7.30
2023-04-12T00:45:40.028Z,8.03
2023-04-12T00:48:07.333Z,9.97
2023-04-12T00:50:35.571Z,9.60
2023-04-12T00:53:04.057Z,7.80
2023-04-12T00:55:33.589Z,6.23
2023-04-12T00:58:00.971Z,11.17
2023-04-12T01:00:27.893Z,10.43
2023-04-12T01:02:55.264Z,11.30
2023-04-12T01:05:24.099Z,10.10
2023-04-12T01:08:16.959Z,9.90
2023-04-12T01:10:56.278Z,12.13
2023-04-12T01:13:40.232Z,8.80
2023-04-12T01:16:32.192Z,10.67
2023-04-12T01:19:06.361Z,7.70
2023-04-12T01:22:17.025Z,9.73
2023-04-12T01:25:06.103Z,8.53
2023-04-12T01:27:56.424Z,5.50
2023-04-12T01:30:28.128Z,5.13
2023-04-12T01:32:58.626Z,8.13
2023-04-12T01:35:30.995Z,11.13
2023-04-12T01:37:59.152Z,6.90
2023-04-12T01:40:29.672Z,10.07
2023-04-12T01:43:07.150Z,4.47
2023-04-12T01:45:34.009Z,6.03
2023-04-12T01:48:01.971Z,8.23
2023-04-12T01:50:40.617Z,4.77
2023-04-12T01:53:28.297Z,3.93
2023-04-12T01:55:59.576Z,7.67
2023-04-12T01:58:27.921Z,9.20
2023-04-12T02:00:57.752Z,4.37
2023-04-12T02:03:25.043Z,12.23
2023-04-12T02:05:52.794Z,8.17
2023-04-12T02:08:19.624Z,6.13
2023-04-12T02:10:46.364Z,7.80
2023-04-12T02:13:14.421Z,6.70
2023-04-12T02:15:41.095Z,12.07
2023-04-12T02:18:07.909Z,11.00
2023-04-12T02:20:35.892Z,12.63
2023-04-12T02:23:02.650Z,10.90
2023-04-12T02:25:29.580Z,7.40
2023-04-12T02:27:56.383Z,12.10
2023-04-12T02:30:23.208Z,9.40
2023-04-12T02:32:51.458Z,9.77
2023-04-12T02:35:18.348Z,6.57
2023-04-12T02:37:46.886Z,7.63
2023-04-12T02:40:15.578Z,8.30
2023-04-12T02:42:43.308Z,9.20
2023-04-12T02:45:11.484Z,7.10
2023-04-12T02:47:38.319Z,7.53
2023-04-12T02:50:06.870Z,6.67
2023-04-12T02:52:33.739Z,5.93
2023-04-12T02:55:00.986Z,8.97
2023-04-12T02:57:27.963Z,7.63
2023-04-12T02:59:55.017Z,6.77
2023-04-12T03:02:23.050Z,4.27
2023-04-12T03:04:51.182Z,8.43
2023-04-12T03:07:19.661Z,6.83
2023-04-12T03:09:47.788Z,6.37
2023-04-12T03:12:16.426Z,7.10
2023-04-12T03:14:43.602Z,6.30
2023-04-12T03:17:10.995Z,9.90
2023-04-12T03:19:37.873Z,5.97
2023-04-12T03:22:05.156Z,10.63
2023-04-12T03:24:35.106Z,5.03
2023-04-12T03:27:06.932Z,6.00
2023-04-12T03:29:33.728Z,7.77
2023-04-12T03:32:00.855Z,7.77
2023-04-12T03:34:32.022Z,7.50
2023-04-12T03:37:01.130Z,5.60
2023-04-12T03:39:31.053Z,6.53
2023-04-12T03:41:58.801Z,9.33
2023-04-12T03:44:26.373Z,6.20
2023-04-12T03:46:53.983Z,10.20
2023-04-12T03:49:24.257Z,8.47
2023-04-12T03:51:59.570Z,8.47
2023-04-12T03:54:30.550Z,10.70
2023-04-12T03:57:06.038Z,7.80
2023-04-12T04:00:14.493Z,6.87
2023-04-12T04:02:51.737Z,10.03
2023-04-12T04:05:37.664Z,8.40
2023-04-12T04:08:08.342Z,9.17
2023-04-12T04:10:37.599Z,9.27
2023-04-12T04:13:10.761Z,10.27
2023-04-12T04:15:37.527Z,12.80
2023-04-12T04:18:20.784Z,11.07
2023-04-12T04:20:55.123Z,7.97
2023-04-12T04:23:25.276Z,7.87
2023-04-12T04:25:59.538Z,8.67
2023-04-12T04:28:29.425Z,7.10
2023-04-12T04:30:57.839Z,6.27
2023-04-12T04:33:56.600Z,9.30
2023-04-12T04:36:48.418Z,9.90
2023-04-12T04:39:24.259Z,10.20
2023-04-12T04:42:15.914Z,12.83
2023-04-12T04:44:45.777Z,11.37
2023-04-12T04:47:17.230Z,14.67
2023-04-12T04:49:54.931Z,7.20
2023-04-12T04:52:40.964Z,7.50
2023-04-12T04:55:16.380Z,7.47
2023-04-12T04:57:48.512Z,7.73
2023-04-12T05:00:16.514Z,8.83
2023-04-12T05:02:45.900Z,9.20
2023-04-12T05:05:13.936Z,7.73
2023-04-12T05:07:40.856Z,8.77
2023-04-12T05:10:08.356Z,9.37
2023-04-12T05:12:35.973Z,9.10
2023-04-12T05:17:34.323Z,9.23
2023-04-12T05:20:06.524Z,12.63
2023-04-12T05:22:37.009Z,10.60
2023-04-12T05:25:06.534Z,7.17
2023-04-12T05:27:33.331Z,10.93
2023-04-12T05:30:00.414Z,7.70
2023-04-12T05:32:27.345Z,9.97
2023-04-12T05:34:54.449Z,9.60
2023-04-12T05:37:21.177Z,8.87
2023-04-12T05:39:47.985Z,9.17
2023-04-12T05:42:14.895Z,9.83
2023-04-12T05:44:48.044Z,11.97
2023-04-12T05:47:16.156Z,8.10
2023-04-12T05:49:47.279Z,9.63
2023-04-12T05:52:14.310Z,9.33
2023-04-12T05:54:41.923Z,10.10
2023-04-12T05:57:08.739Z,7.80
2023-04-12T05:59:35.506Z,11.20
2023-04-12T06:02:02.576Z,9.77
2023-04-12T06:04:38.401Z,9.57
2023-04-12T06:07:13.895Z,10.13
2023-04-12T06:09:42.803Z,12.93
2023-04-12T06:12:09.492Z,13.17
2023-04-12T06:14:36.340Z,13.03
2023-04-12T06:17:03.120Z,10.80
2023-04-12T06:19:29.870Z,9.43
2023-04-12T06:21:56.904Z,9.83
2023-04-12T06:24:23.727Z,8.73
2023-04-12T06:26:50.744Z,15.07
2023-04-12T06:29:17.635Z,11.87
2023-04-12T06:31:44.537Z,9.80
2023-04-12T06:34:11.332Z,14.80
2023-04-12T06:36:40.195Z,12.73
2023-04-12T06:39:08.347Z,12.27
2023-04-12T06:41:35.084Z,11.07
2023-04-12T06:44:01.757Z,9.30
2023-04-12T06:46:29.679Z,12.57
2023-04-12T06:48:56.606Z,10.07
2023-04-12T06:51:23.548Z,14.23
2023-04-12T06:53:50.660Z,12.53
2023-04-12T06:56:18.659Z,10.80
2023-04-12T06:58:46.066Z,13.50
2023-04-12T07:01:14.618Z,11.17
2023-04-12T07:03:41.611Z,11.53
2023-04-12T07:06:21.891Z,13.77
2023-04-12T07:08:52.755Z,12.37
2023-04-12T07:11:22.429Z,15.73
2023-04-12T07:13:51.154Z,13.87
2023-04-12T07:16:18.483Z,12.50
2023-04-12T07:18:47.283Z,13.77
2023-04-12T07:21:14.574Z,13.60
2023-04-12T07:23:44.025Z,13.50
2023-04-12T07:26:10.950Z,12.80
2023-04-12T07:28:39.174Z,12.60
2023-04-12T07:31:09.570Z,12.97
2023-04-12T07:33:39.395Z,10.43
2023-04-12T07:36:08.059Z,10.83
2023-04-12T07:38:35.063Z,13.07
2023-04-12T07:41:02.665Z,12.03
2023-04-12T07:43:32.578Z,11.23
2023-04-12T07:45:59.614Z,9.60
2023-04-12T07:48:26.736Z,11.60
2023-04-12T07:50:53.597Z,10.93
2023-04-12T07:53:24.837Z,9.17
2023-04-12T07:55:53.379Z,7.87
2023-04-12T07:58:22.944Z,10.67
2023-04-12T08:00:50.168Z,12.67
2023-04-12T08:03:18.538Z,9.83
2023-04-12T08:05:49.089Z,8.43
2023-04-12T08:08:16.239Z,11.27
2023-04-12T08:10:45.548Z,9.00
2023-04-12T08:13:12.452Z,11.50
2023-04-12T08:15:41.774Z,8.47
2023-04-12T08:18:08.595Z,12.53
2023-04-12T08:20:35.757Z,10.07
2023-04-12T08:23:04.334Z,13.27
2023-04-12T08:25:31.488Z,12.33
2023-04-12T08:27:59.418Z,16.37
2023-04-12T08:30:27.178Z,11.47
2023-04-12T08:32:54.382Z,17.17
2023-04-12T08:35:22.660Z,11.80
2023-04-12T08:37:49.852Z,16.13
2023-04-12T08:40:17.036Z,9.50
2023-04-12T08:42:46.296Z,15.30
2023-04-12T08:45:14.376Z,18.90
2023-04-12T08:47:45.107Z,11.97
2023-04-12T08:50:17.307Z,11.60
2023-04-12T08:52:44.273Z,8.80
2023-04-12T08:55:13.034Z,11.80
2023-04-12T08:57:41.720Z,12.43
2023-04-12T09:00:10.262Z,11.23
2023-04-12T09:02:38.437Z,11.03
2023-04-12T09:05:06.870Z,13.83
2023-04-12T09:07:34.691Z,18.10
2023-04-12T09:10:01.749Z,12.43
2023-04-12T09:12:28.631Z,14.40
2023-04-12T09:15:12.853Z,13.27
2023-04-12T09:17:41.400Z,14.43
2023-04-12T09:20:21.714Z,18.13
2023-04-12T09:22:48.889Z,16.87
2023-04-12T09:25:16.112Z,17.43
2023-04-12T09:27:50.884Z,15.93
2023-04-12T09:30:19.376Z,13.00
2023-04-12T09:32:49.287Z,16.57
2023-04-12T09:35:16.488Z,15.20
2023-04-12T09:37:43.330Z,20.97
2023-04-12T09:40:11.162Z,17.53
2023-04-12T09:42:55.442Z,14.27
2023-04-12T09:45:28.049Z,15.83
2023-04-12T09:47:55.521Z,25.73
2023-04-12T09:50:30.284Z,18.07
2023-04-12T09:52:58.102Z,20.70
2023-04-12T09:55:26.895Z,20.40
2023-04-12T09:57:55.312Z,14.90
2023-04-12T10:00:27.431Z,18.07
2023-04-12T10:02:55.881Z,20.63
2023-04-12T10:05:26.271Z,15.47
2023-04-12T10:07:53.630Z,13.83
2023-04-12T10:10:21.199Z,11.43
2023-04-12T10:12:49.181Z,14.37
2023-04-12T10:15:21.898Z,13.67
2023-04-12T10:17:55.910Z,11.23
2023-04-12T10:20:25.531Z,13.73
2023-04-12T10:22:54.238Z,15.57
2023-04-12T10:25:23.884Z,11.77
2023-04-12T10:27:50.763Z,10.13
2023-04-12T10:30:29.411Z,14.70
2023-04-12T10:33:05.701Z,11.63
2023-04-12T10:36:03.845Z,16.70
2023-04-12T10:38:37.443Z,14.90
2023-04-12T10:41:13.543Z,13.13
2023-04-12T10:43:45.880Z,11.53
2023-04-12T10:46:45.593Z,14.50
2023-04-12T10:49:16.499Z,16.13
2023-04-12T10:52:16.134Z,13.30
2023-04-12T10:54:43.176Z,16.07
2023-04-12T10:57:47.146Z,15.90
2023-04-12T11:00:16.987Z,13.43
2023-04-12T11:03:12.763Z,15.23
2023-04-12T11:06:20.228Z,10.67
2023-04-12T11:08:54.726Z,13.50
2023-04-12T11:11:22.775Z,10.27
2023-04-12T11:13:56.186Z,9.63
2023-04-12T11:16:23.097Z,13.97
2023-04-12T11:18:50.556Z,19.40
2023-04-12T11:21:18.618Z,16.53
2023-04-12T11:23:46.755Z,8.40
2023-04-12T11:26:20.376Z,19.10
2023-04-12T11:28:48.249Z,12.20
2023-04-12T11:31:15.660Z,10.33
2023-04-12T11:33:42.584Z,13.87
2023-04-12T11:36:16.481Z,11.97
2023-04-12T11:38:48.187Z,11.60
2023-04-12T11:41:15.563Z,16.93
2023-04-12T11:43:46.086Z,10.23
2023-04-12T11:46:13.289Z,11.50
2023-04-12T11:48:45.239Z,17.17
2023-04-12T11:51:25.465Z,14.27
2023-04-12T11:53:57.210Z,15.30
2023-04-12T11:56:27.709Z,10.07
2023-04-12T11:58:54.695Z,19.83
2023-04-12T12:01:24.065Z,20.60
2023-04-12T12:03:51.380Z,14.50
2023-04-12T12:06:19.873Z,12.63
2023-04-12T12:08:48.498Z,20.27
2023-04-12T12:11:15.726Z,11.27
2023-04-12T12:13:50.595Z,8.83
2023-04-12T12:16:40.220Z,12.33
2023-04-12T12:19:07.193Z,8.17
2023-04-12T12:21:34.140Z,9.67
2023-04-12T12:24:01.380Z,8.90
2023-04-12T12:26:28.712Z,13.73
2023-04-12T12:28:57.417Z,12.70
2023-04-12T12:31:26.585Z,9.20
2023-04-12T12:33:58.910Z,11.33
2023-04-12T12:36:39.609Z,13.50
2023-04-12T12:39:11.834Z,9.27
2023-04-12T12:41:39.979Z,6.40
2023-04-12T12:44:08.052Z,6.93
2023-04-12T12:46:54.169Z,5.83
2023-04-12T12:49:24.104Z,6.70
2023-04-12T12:51:54.864Z,6.63
2023-04-12T12:54:39.425Z,9.50
2023-04-12T12:57:07.923Z,7.13
2023-04-12T12:59:34.983Z,14.07
2023-04-12T13:02:02.035Z,11.57
2023-04-12T13:04:29.250Z,12.53
2023-04-12T13:06:56.156Z,11.67
2023-04-12T13:09:23.243Z,14.10
2023-04-12T13:11:50.137Z,13.67
2023-04-12T13:14:18.128Z,10.13
2023-04-12T13:16:48.522Z,12.60
2023-04-12T13:19:16.754Z,9.05
2023-04-12T13:21:43.730Z,11.15
2023-04-12T13:24:10.566Z,9.95
2023-04-12T13:26:37.341Z,7.57
2023-04-12T13:29:04.325Z,8.90
2023-04-12T13:31:32.702Z,6.03
2023-04-12T13:33:59.880Z,6.97
2023-04-12T13:36:34.859Z,6.65
2023-04-12T13:39:03.060Z,8.13
2023-04-12T13:41:32.945Z,8.27
2023-04-12T13:44:00.954Z,8.03
2023-04-12T13:46:28.026Z,7.22
2023-04-12T13:48:55.030Z,4.30
2023-04-12T13:51:22.985Z,2.83
2023-04-12T13:53:49.824Z,3.17
2023-04-12T13:56:18.946Z,4.00
2023-04-12T13:58:45.915Z,4.70
2023-04-12T14:01:13.889Z,5.20
2023-04-12T14:03:40.819Z,5.27
2023-04-12T14:06:09.750Z,5.73
2023-04-12T14:08:36.693Z,6.27
2023-04-12T14:11:06.941Z,6.20
2023-04-12T14:13:33.828Z,7.77
2023-04-12T14:16:00.717Z,8.07
2023-04-12T14:18:30.465Z,7.20
2023-04-12T14:20:59.332Z,4.77
2023-04-12T14:23:27.743Z,7.73
2023-04-12T14:25:54.858Z,5.83
2023-04-12T14:28:30.653Z,6.07
2023-04-12T14:30:58.136Z,9.83
2023-04-12T14:33:25.323Z,7.47
2023-04-12T14:35:55.513Z,8.13
2023-04-12T14:38:22.959Z,7.43
2023-04-12T14:40:58.810Z,6.37
2023-04-12T14:43:26.310Z,5.10
2023-04-12T14:45:55.932Z,9.17
2023-04-12T14:48:24.956Z,7.27
2023-04-12T14:50:52.002Z,5.97
2023-04-12T14:53:23.171Z,7.77
2023-04-12T14:55:52.240Z,9.97
2023-04-12T14:58:19.575Z,5.00
2023-04-12T15:00:47.570Z,7.40
2023-04-12T15:03:15.785Z,5.47
2023-04-12T15:05:42.955Z,4.37
2023-04-12T15:08:09.955Z,5.90
2023-04-12T15:10:38.064Z,5.97
2023-04-12T15:13:06.040Z,4.33
2023-04-12T15:15:32.982Z,5.33
2023-04-12T15:18:06.058Z,7.10
2023-04-12T15:20:33.348Z,3.93
2023-04-12T15:23:02.920Z,4.43
2023-04-12T15:25:33.535Z,4.57
2023-04-12T15:28:02.625Z,5.80
2023-04-12T15:30:30.621Z,3.60
2023-04-12T15:32:58.630Z,5.67
2023-04-12T15:35:27.177Z,6.53
2023-04-12T15:37:55.168Z,3.50
2023-04-12T15:40:23.063Z,6.27
2023-04-12T15:42:56.311Z,2.70
2023-04-12T15:45:23.464Z,3.70
2023-04-12T15:47:51.009Z,5.40
2023-04-12T15:50:23.351Z,3.30
2023-04-12T15:52:50.851Z,3.63
2023-04-12T15:55:20.281Z,5.20
2023-04-12T15:57:51.500Z,4.13
2023-04-12T16:00:24.357Z,4.23
2023-04-12T16:02:54.959Z,5.00
2023-04-12T16:05:22.288Z,4.03
2023-04-12T16:07:51.257Z,3.23
2023-04-12T16:10:22.870Z,5.10
2023-04-12T16:12:51.327Z,5.13
2023-04-12T16:15:21.121Z,3.33
2023-04-12T16:17:48.927Z,2.83
2023-04-12T16:20:23.058Z,3.67
2023-04-12T16:22:55.720Z,3.83
2023-04-12T16:25:24.485Z,1.27
2023-04-12T16:27:57.858Z,4.30
2023-04-12T16:30:25.647Z,3.73
2023-04-12T16:32:53.149Z,4.07
2023-04-12T16:35:20.036Z,1.43
2023-04-12T16:37:53.860Z,3.13
2023-04-12T16:40:26.038Z,2.13
2023-04-12T16:42:56.134Z,2.57
2023-04-12T16:45:23.348Z,3.50
2023-04-12T16:47:50.768Z,1.93
2023-04-12T16:50:17.991Z,1.53
2023-04-12T16:52:47.701Z,3.10
2023-04-12T16:55:14.677Z,3.97
2023-04-12T16:57:43.056Z,3.57
2023-04-12T17:00:27.512Z,3.00
2023-04-12T17:02:55.574Z,2.07
2023-04-12T17:05:23.124Z,7.83
2023-04-12T17:07:54.125Z,2.83
2023-04-12T17:10:22.920Z,2.87
2023-04-12T17:12:52.675Z,3.73
2023-04-12T17:15:21.035Z,5.33
2023-04-12T17:17:52.513Z,3.57
2023-04-12T17:20:22.186Z,2.03
2023-04-12T17:22:50.187Z,2.33
2023-04-12T17:25:18.892Z,5.60
2023-04-12T17:27:47.760Z,2.87
2023-04-12T17:30:17.656Z,4.57
2023-04-12T17:32:50.081Z,3.33
2023-04-12T17:35:23.452Z,3.57
2023-04-12T17:37:50.921Z,1.87
2023-04-12T17:40:17.784Z,4.70
2023-04-12T17:42:45.136Z,4.63
2023-04-12T17:45:14.448Z,1.70
2023-04-12T17:47:42.492Z,4.20
2023-04-12T17:50:18.525Z,3.40
2023-04-12T17:52:47.772Z,4.63
2023-04-12T17:55:14.905Z,2.33
2023-04-12T17:57:44.291Z,1.20
2023-04-12T18:00:12.025Z,3.27
2023-04-12T18:02:42.470Z,3.80
2023-04-12T18:05:12.982Z,5.37
2023-04-12T18:07:41.228Z,3.73
2023-04-12T18:10:15.953Z,1.70
2023-04-12T18:12:46.518Z,4.00
2023-04-12T18:15:19.580Z,3.03
2023-04-12T18:17:47.652Z,2.10
2023-04-12T18:20:15.989Z,5.70
2023-04-12T18:22:44.111Z,3.33
2023-04-12T18:25:12.406Z,3.23
2023-04-12T18:27:39.100Z,1.73
2023-04-12T18:30:07.317Z,3.30
2023-04-12T18:32:34.054Z,4.73
2023-04-12T18:35:01.457Z,2.30
2023-04-12T18:37:28.212Z,4.23
2023-04-12T18:39:55.599Z,3.17
2023-04-12T18:42:23.337Z,2.30
2023-04-12T18:44:51.020Z,2.97
2023-04-12T18:47:18.303Z,2.17
2023-04-12T18:49:45.813Z,3.90
2023-04-12T18:52:12.597Z,2.87
2023-04-12T18:54:39.279Z,3.63
2023-04-12T18:57:06.949Z,3.20
2023-04-12T18:59:33.753Z,4.10
2023-04-12T19:02:00.596Z,2.83
2023-04-12T19:04:27.925Z,3.83
2023-04-12T19:06:56.214Z,2.67
2023-04-12T19:09:23.151Z,8.37
2023-04-12T19:11:49.835Z,4.37
2023-04-12T19:14:16.645Z,5.47
2023-04-12T19:16:43.355Z,4.53
2023-04-12T19:19:10.135Z,5.10
2023-04-12T19:21:37.726Z,4.83
2023-04-12T19:24:06.763Z,3.53
2023-04-12T19:26:36.607Z,5.67
2023-04-12T19:29:03.540Z,5.77
2023-04-12T19:31:30.550Z,7.63
2023-04-12T19:33:57.699Z,8.87
2023-04-12T19:36:24.941Z,6.03
2023-04-12T19:38:52.173Z,5.67
2023-04-12T19:41:20.465Z,5.77
2023-04-12T19:43:47.752Z,7.10
2023-04-12T19:46:16.433Z,5.57
2023-04-12T19:48:45.397Z,11.90
2023-04-12T19:51:12.160Z,5.53
2023-04-12T19:53:39.808Z,12.03
2023-04-12T19:56:06.933Z,8.27
2023-04-12T19:58:34.720Z,5.50
2023-04-12T20:01:03.066Z,7.77
2023-04-12T20:03:31.239Z,6.63
2023-04-12T20:06:04.551Z,5.53
2023-04-12T20:08:35.601Z,3.80
2023-04-12T20:11:03.427Z,6.50
2023-04-12T20:13:31.466Z,4.83
2023-04-12T20:16:02.962Z,6.57
2023-04-12T20:18:29.744Z,6.70
2023-04-12T20:20:57.787Z,4.27
2023-04-12T20:23:26.088Z,8.67
2023-04-12T20:25:54.185Z,6.60
2023-04-12T20:28:21.221Z,8.40
2023-04-12T20:30:51.211Z,9.70
2023-04-12T20:33:20.065Z,5.67
2023-04-12T20:35:49.234Z,6.30
2023-04-12T20:38:18.458Z,7.73
2023-04-12T20:40:45.198Z,6.10
2023-04-12T20:43:11.922Z,9.90
2023-04-12T20:45:39.751Z,4.27
2023-04-12T20:48:07.577Z,6.97
2023-04-12T20:50:34.413Z,6.67
2023-04-12T20:53:01.328Z,7.10
2023-04-12T20:55:34.928Z,6.23
2023-04-12T20:58:03.109Z,9.20
2023-04-12T21:00:31.244Z,7.27
2023-04-12T21:02:58.570Z,7.27
2023-04-12T21:05:27.317Z,6.70
2023-04-12T21:07:54.745Z,6.87
2023-04-12T21:10:22.298Z,7.63
2023-04-12T21:12:50.087Z,7.43
2023-04-12T21:15:22.168Z,6.47
2023-04-12T21:17:51.593Z,12.50
2023-04-12T21:20:18.909Z,10.17
2023-04-12T21:22:47.975Z,6.67
2023-04-12T21:25:18.927Z,6.80
2023-04-12T21:27:47.748Z,5.77
2023-04-12T21:30:14.735Z,8.60
2023-04-12T21:32:43.408Z,6.70
2023-04-12T21:35:16.340Z,6.07
2023-04-12T21:37:43.074Z,9.37
2023-04-12T21:40:10.143Z,6.70
2023-04-12T21:42:37.878Z,7.40
2023-04-12T21:45:06.153Z,8.50
2023-04-12T21:47:34.132Z,6.77
2023-04-12T21:50:01.347Z,5.20
2023-04-12T21:52:28.062Z,5.63
2023-04-12T21:54:55.850Z,5.07
2023-04-12T21:57:22.640Z,6.23
2023-04-12T21:59:49.381Z,4.33
2023-04-12T22:02:16.351Z,5.03
2023-04-12T22:04:43.664Z,4.43
2023-04-12T22:07:17.535Z,5.70
2023-04-12T22:09:45.305Z,4.03
2023-04-12T22:12:12.761Z,5.03
2023-04-12T22:14:46.658Z,4.93
2023-04-12T22:17:14.768Z,8.13
2023-04-12T22:19:43.779Z,4.40
2023-04-12T22:22:11.136Z,4.30
2023-04-12T22:24:38.836Z,4.57
2023-04-12T22:27:06.933Z,4.87
2023-04-12T22:29:37.758Z,3.13
2023-04-12T22:32:08.861Z,2.83
2023-04-12T22:34:39.299Z,2.83
2023-04-12T22:37:08.680Z,4.07
2023-04-12T22:39:39.497Z,3.37
2023-04-12T22:42:06.441Z,3.27
2023-04-12T22:44:40.508Z,3.70
2023-04-12T22:47:10.453Z,2.97
2023-04-12T22:49:54.460Z,5.07
2023-04-12T22:52:24.634Z,2.87
2023-04-12T22:54:51.462Z,4.60
2023-04-12T22:57:21.318Z,2.50
2023-04-12T22:59:48.086Z,3.23
2023-04-12T23:02:15.741Z,2.33
2023-04-12T23:04:51.224Z,1.83
2023-04-12T23:07:18.314Z,2.03
2023-04-12T23:09:45.951Z,1.60
2023-04-12T23:12:13.612Z,3.27
2023-04-12T23:14:40.486Z,3.17
2023-04-12T23:17:07.452Z,2.77
2023-04-12T23:19:34.602Z,2.53
2023-04-12T23:22:03.384Z,6.23
2023-04-12T23:24:30.969Z,1.20
2023-04-12T23:27:00.426Z,3.23
2023-04-12T23:29:27.393Z,5.00
2023-04-12T23:31:54.397Z,1.83
2023-04-12T23:34:24.442Z,4.30
2023-04-12T23:36:56.190Z,2.63
2023-04-12T23:39:22.917Z,2.33
2023-04-12T23:41:49.743Z,5.90
2023-04-12T23:44:16.496Z,2.40
2023-04-12T23:46:43.730Z,2.17
2023-04-12T23:49:10.421Z,5.90
2023-04-12T23:51:37.171Z,2.23
2023-04-12T23:54:04.076Z,4.47
2023-04-12T23:56:30.911Z,4.43
2023-04-12T23:58:59.562Z,2.60
